createdAt,value
2019-04-23T00:00:56.335Z,2.37
2019-04-23T00:03:30.294Z,2.60
2019-04-23T00:06:02.374Z,2.00
2019-04-23T00:08:25.779Z,2.33
2019-04-23T00:10:59.064Z,2.40
2019-04-23T00:13:30.305Z,1.90
2019-04-23T00:16:13.997Z,2.27
2019-04-23T00:18:49.481Z,1.90
2019-04-23T00:21:23.516Z,2.37
2019-04-23T00:23:53.345Z,2.20
2019-04-23T00:26:25.602Z,2.20
2019-04-23T00:28:58.941Z,2.50
2019-04-23T00:31:39.234Z,2.30
2019-04-23T00:33:57.714Z,2.40
2019-04-23T00:38:54.005Z,2.40
2019-04-23T00:41:33.364Z,2.43
2019-04-23T00:44:15.188Z,3.30
2019-04-23T00:49:07.416Z,2.63
2019-04-23T00:51:32.050Z,2.30
2019-04-23T00:54:08.037Z,2.83
2019-04-23T00:59:08.308Z,1.97
2019-04-23T01:01:42.752Z,2.60
2019-04-23T01:04:08.031Z,2.20
2019-04-23T01:06:37.814Z,2.47
2019-04-23T01:09:10.425Z,2.93
2019-04-23T01:11:44.848Z,2.50
2019-04-23T01:14:13.670Z,2.90
2019-04-23T01:16:42.505Z,2.43
2019-04-23T01:19:31.705Z,2.67
2019-04-23T01:21:38.861Z,1.90
2019-04-23T01:24:29.731Z,2.13
2019-04-23T01:27:49.206Z,2.70
2019-04-23T01:30:10.116Z,2.30
2019-04-23T01:32:38.287Z,2.30
2019-04-23T01:37:41.195Z,2.70
2019-04-23T01:45:19.800Z,2.73
2019-04-23T01:47:50.049Z,2.87
2019-04-23T01:50:22.838Z,3.30
2019-04-23T01:53:14.950Z,2.37
2019-04-23T01:55:31.529Z,2.97
2019-04-23T02:03:10.909Z,2.77
2019-04-23T02:05:27.513Z,3.00
2019-04-23T02:08:11.080Z,3.33
2019-04-23T02:10:44.350Z,2.70
2019-04-23T02:13:16.674Z,2.93
2019-04-23T02:15:42.451Z,3.13
2019-04-23T02:20:49.744Z,3.67
2019-04-23T02:23:24.933Z,3.15
2019-04-23T02:26:10.737Z,3.00
2019-04-23T02:28:47.603Z,3.03
2019-04-23T02:33:43.890Z,3.43
2019-04-23T02:36:11.262Z,2.97
2019-04-23T02:41:09.025Z,3.13
2019-04-23T02:43:59.197Z,3.13
2019-04-23T02:46:08.140Z,2.87
2019-04-23T02:48:44.367Z,2.67
2019-04-23T02:51:10.946Z,2.97
2019-04-23T02:53:53.522Z,3.00
2019-04-23T02:56:21.554Z,3.77
2019-04-23T03:06:18.912Z,3.47
2019-04-23T03:09:09.826Z,3.20
2019-04-23T03:11:26.184Z,3.40
2019-04-23T03:13:54.235Z,3.30
2019-04-23T03:19:00.664Z,3.17
2019-04-23T03:21:52.848Z,3.40
2019-04-23T03:27:16.544Z,3.52
2019-04-23T03:37:23.342Z,3.75
2019-04-23T03:42:38.647Z,3.83
2019-04-23T03:47:31.989Z,3.47
2019-04-23T03:49:56.165Z,3.83
2019-04-23T03:54:49.220Z,3.92
2019-04-23T03:57:24.793Z,4.60
2019-04-23T04:00:05.820Z,4.00
2019-04-23T04:04:51.877Z,4.35
2019-04-23T04:10:08.725Z,4.10
2019-04-23T04:12:29.930Z,4.10
2019-04-23T04:17:26.698Z,4.60
2019-04-23T04:22:37.458Z,4.47
2019-04-23T04:30:12.394Z,4.60
2019-04-23T04:32:36.618Z,4.75
2019-04-23T04:35:18.835Z,4.87
2019-04-23T04:40:18.148Z,4.83
2019-04-23T04:45:14.288Z,5.42
2019-04-23T04:47:42.499Z,5.95
2019-04-23T04:52:50.859Z,6.00
2019-04-23T04:55:12.028Z,5.62
2019-04-23T05:03:04.452Z,5.67
2019-04-23T05:10:25.232Z,5.72
2019-04-23T05:12:54.998Z,6.10
2019-04-23T05:18:08.116Z,6.03
2019-04-23T05:23:06.110Z,6.15
2019-04-23T05:25:31.766Z,6.42
2019-04-23T05:28:07.897Z,6.22
2019-04-23T05:30:39.737Z,5.97
2019-04-23T05:36:04.987Z,5.22
2019-04-23T05:40:45.325Z,8.00
2019-04-23T05:43:12.376Z,7.65
2019-04-23T05:45:51.156Z,7.97
2019-04-23T05:53:42.446Z,7.40
2019-04-23T05:55:55.378Z,7.17
2019-04-23T05:58:28.624Z,7.80
2019-04-23T06:01:41.689Z,7.73
2019-04-23T06:03:58.149Z,8.23
2019-04-23T06:08:58.636Z,7.03
2019-04-23T06:11:39.750Z,8.27
2019-04-23T06:14:06.338Z,8.00
2019-04-23T06:16:41.185Z,7.30
2019-04-23T06:19:07.697Z,8.37
2019-04-23T06:21:44.764Z,7.67
2019-04-23T06:24:16.308Z,8.57
2019-04-23T06:31:44.023Z,9.00
2019-04-23T06:34:16.631Z,8.03
2019-04-23T06:36:46.593Z,7.77
2019-04-23T06:39:17.726Z,8.80
2019-04-23T06:41:50.188Z,8.37
2019-04-23T06:44:32.217Z,8.37
2019-04-23T06:47:01.727Z,8.10
2019-04-23T06:49:27.076Z,7.43
2019-04-23T06:54:37.429Z,8.50
2019-04-23T06:59:37.265Z,7.73
2019-04-23T07:04:43.390Z,9.37
2019-04-23T07:07:31.403Z,8.00
2019-04-23T07:09:42.407Z,9.80
2019-04-23T07:12:19.886Z,8.47
2019-04-23T07:17:13.549Z,9.57
2019-04-23T07:19:46.701Z,8.20
2019-04-23T07:22:21.581Z,8.50
2019-04-23T07:24:49.134Z,8.60
2019-04-23T07:30:03.933Z,8.87
2019-04-23T07:32:38.918Z,9.07
2019-04-23T07:35:16.051Z,8.60
2019-04-23T07:37:43.188Z,8.90
2019-04-23T07:43:08.761Z,8.87
2019-04-23T07:45:54.830Z,8.33
2019-04-23T07:48:23.837Z,7.97
2019-04-23T07:50:52.012Z,9.00
2019-04-23T07:56:02.140Z,8.47
2019-04-23T07:58:30.385Z,8.53
2019-04-23T08:01:00.985Z,9.10
2019-04-23T08:03:29.021Z,9.20
2019-04-23T08:06:00.566Z,8.63
2019-04-23T08:08:33.305Z,9.60
2019-04-23T08:13:53.398Z,9.10
2019-04-23T08:21:19.283Z,9.20
2019-04-23T08:24:10.662Z,8.57
2019-04-23T08:26:59.173Z,9.37
2019-04-23T08:32:12.311Z,8.07
2019-04-23T08:42:33.082Z,10.30
2019-04-23T08:55:49.562Z,9.07
2019-04-23T08:58:25.882Z,9.30
2019-04-23T09:03:25.141Z,9.50
2019-04-23T09:06:00.768Z,9.60
2019-04-23T09:08:27.849Z,8.20
2019-04-23T09:11:05.119Z,9.77
2019-04-23T09:13:52.288Z,9.30
2019-04-23T09:21:02.136Z,10.00
2019-04-23T09:28:41.939Z,8.70
2019-04-23T09:31:18.698Z,8.23
2019-04-23T09:33:52.162Z,8.63
2019-04-23T09:36:37.841Z,9.40
2019-04-23T09:39:15.370Z,9.90
2019-04-23T09:42:09.151Z,8.73
2019-04-23T09:44:58.506Z,9.50
2019-04-23T09:47:41.431Z,8.40
2019-04-23T09:50:12.371Z,9.17
2019-04-23T09:52:46.671Z,8.80
2019-04-23T09:55:15.481Z,10.00
2019-04-23T09:57:46.604Z,8.80
2019-04-23T10:00:16.996Z,8.90
2019-04-23T10:02:34.299Z,9.27
2019-04-23T10:05:04.076Z,9.57
2019-04-23T10:07:30.030Z,8.60
2019-04-23T10:09:51.769Z,9.30
2019-04-23T10:12:24.110Z,9.77
2019-04-23T10:15:07.220Z,9.80
2019-04-23T10:17:28.479Z,8.93
2019-04-23T10:19:58.342Z,8.97
2019-04-23T10:22:29.476Z,8.30
2019-04-23T10:24:59.485Z,9.63
2019-04-23T10:27:29.521Z,8.93
2019-04-23T10:29:59.606Z,9.10
2019-04-23T10:32:29.798Z,9.47
2019-04-23T10:35:11.911Z,9.40
2019-04-23T10:37:36.825Z,10.00
2019-04-23T10:40:05.401Z,8.30
2019-04-23T10:42:35.874Z,8.07
2019-04-23T10:45:40.882Z,8.67
2019-04-23T10:51:18.086Z,8.33
2019-04-23T10:56:40.805Z,8.00
2019-04-23T10:59:27.222Z,8.50
2019-04-23T11:02:15.871Z,9.00
2019-04-23T11:07:26.930Z,9.10
2019-04-23T11:09:53.066Z,8.43
2019-04-23T11:12:24.538Z,8.83
2019-04-23T11:14:53.418Z,7.90
2019-04-23T11:17:30.628Z,9.03
2019-04-23T11:22:36.137Z,8.30
2019-04-23T11:24:50.097Z,7.40
2019-04-23T11:27:22.172Z,6.70
2019-04-23T11:32:44.137Z,8.13
2019-04-23T11:37:36.345Z,8.10
2019-04-23T11:42:26.199Z,8.00
2019-04-23T11:44:56.502Z,8.43
2019-04-23T11:48:14.700Z,7.70
2019-04-23T11:50:25.356Z,8.80
2019-04-23T11:52:35.567Z,9.20
2019-04-23T11:55:03.167Z,7.87
2019-04-23T12:00:09.813Z,8.87
2019-04-23T12:03:02.454Z,8.07
2019-04-23T12:05:58.263Z,8.20
2019-04-23T12:08:37.834Z,7.97
2019-04-23T12:11:51.990Z,8.07
2019-04-23T12:14:06.169Z,8.10
2019-04-23T12:16:43.198Z,8.43
2019-04-23T12:19:25.405Z,7.50
2019-04-23T12:21:41.146Z,7.60
2019-04-23T12:24:29.101Z,8.27
2019-04-23T12:26:56.252Z,9.43
2019-04-23T12:29:13.964Z,9.13
2019-04-23T12:31:38.296Z,8.50
2019-04-23T12:34:14.957Z,8.87
2019-04-23T12:37:09.511Z,8.00
2019-04-23T12:39:32.974Z,7.40
2019-04-23T12:42:19.734Z,7.80
2019-04-23T12:44:38.780Z,8.40
2019-04-23T12:47:17.215Z,8.60
2019-04-23T12:49:57.759Z,9.43
2019-04-23T12:52:11.605Z,8.07
2019-04-23T12:57:29.970Z,8.83
2019-04-23T12:59:44.364Z,9.17
2019-04-23T13:04:49.041Z,8.03
2019-04-23T13:07:17.782Z,7.13
2019-04-23T13:09:52.495Z,8.50
2019-04-23T13:12:33.260Z,8.43
2019-04-23T13:14:58.666Z,8.07
2019-04-23T13:17:29.687Z,7.67
2019-04-23T13:19:58.246Z,8.83
2019-04-23T13:22:31.862Z,7.77
2019-04-23T13:25:32.572Z,8.63
2019-04-23T13:28:01.984Z,8.90
2019-04-23T13:33:02.664Z,8.70
2019-04-23T13:40:39.071Z,8.93
2019-04-23T13:43:08.852Z,9.23
2019-04-23T13:45:56.443Z,8.90
2019-04-23T13:50:47.509Z,9.47
2019-04-23T13:55:34.655Z,8.47
2019-04-23T14:03:09.674Z,8.80
2019-04-23T14:06:01.216Z,9.53
2019-04-23T14:11:03.640Z,8.70
2019-04-23T14:18:51.613Z,9.00
2019-04-23T14:21:14.163Z,8.20
2019-04-23T14:26:18.829Z,8.90
2019-04-23T14:28:41.846Z,9.87
2019-04-23T14:31:13.080Z,8.77
2019-04-23T14:36:17.681Z,8.00
2019-04-23T14:43:57.888Z,8.83
2019-04-23T14:46:38.777Z,9.37
2019-04-23T14:49:04.196Z,8.83
2019-04-23T14:53:48.113Z,8.20
2019-04-23T14:56:35.533Z,7.93
2019-04-23T14:59:07.780Z,7.97
2019-04-23T15:02:02.369Z,8.47
2019-04-23T15:04:14.692Z,8.93
2019-04-23T15:06:52.059Z,8.00
2019-04-23T15:09:22.284Z,8.30
2019-04-23T15:14:16.844Z,8.53
2019-04-23T15:19:40.247Z,9.20
2019-04-23T15:22:05.257Z,9.17
2019-04-23T15:24:27.732Z,7.43
2019-04-23T15:29:12.731Z,6.80
2019-04-23T15:34:23.171Z,8.90
2019-04-23T15:39:32.698Z,7.20
2019-04-23T15:42:06.211Z,8.00
2019-04-23T15:44:42.017Z,7.60
2019-04-23T15:47:19.335Z,8.00
2019-04-23T15:49:45.791Z,6.40
2019-04-23T15:52:27.308Z,7.20
2019-04-23T15:54:51.491Z,7.70
2019-04-23T15:57:41.809Z,7.50
2019-04-23T15:59:53.397Z,7.33
2019-04-23T16:01:50.364Z,7.33
2019-04-23T16:04:20.609Z,7.87
2019-04-23T16:06:50.059Z,8.00
2019-04-23T16:09:59.843Z,7.80
2019-04-23T16:12:25.343Z,7.80
2019-04-23T16:17:32.678Z,7.30
2019-04-23T16:20:33.416Z,7.10
2019-04-23T16:22:51.071Z,8.60
2019-04-23T16:25:20.381Z,7.03
2019-04-23T16:28:04.084Z,7.73
2019-04-23T16:30:31.367Z,7.13
2019-04-23T16:38:38.348Z,8.20
2019-04-23T16:41:07.655Z,8.10
2019-04-23T16:43:44.047Z,7.23
2019-04-23T16:46:07.381Z,7.20
2019-04-23T16:51:25.207Z,8.00
2019-04-23T16:53:59.219Z,7.33
2019-04-23T16:56:39.936Z,8.20
2019-04-23T16:58:44.593Z,15.43
2019-04-23T17:01:20.724Z,8.30
2019-04-23T17:09:24.594Z,8.77
2019-04-23T17:13:50.969Z,6.83
2019-04-23T17:21:18.100Z,8.87
2019-04-23T17:28:51.809Z,7.87
2019-04-23T17:33:59.218Z,9.53
2019-04-23T17:42:01.711Z,9.10
2019-04-23T17:44:24.174Z,9.40
2019-04-23T17:46:54.080Z,8.50
2019-04-23T17:49:35.289Z,8.87
2019-04-23T17:51:50.973Z,8.73
2019-04-23T17:54:24.607Z,9.30
2019-04-23T17:57:01.520Z,9.30
2019-04-23T17:59:53.613Z,7.80
2019-04-23T18:02:39.903Z,9.17
2019-04-23T18:04:56.851Z,8.40
2019-04-23T18:07:23.456Z,8.80
2019-04-23T18:09:47.904Z,9.03
2019-04-23T18:12:22.422Z,8.53
2019-04-23T18:14:43.973Z,8.43
2019-04-23T18:20:04.993Z,9.13
2019-04-23T18:22:37.334Z,9.27
2019-04-23T18:27:48.456Z,8.87
2019-04-23T18:30:26.213Z,9.53
2019-04-23T18:35:29.829Z,9.07
2019-04-23T18:40:54.693Z,8.40
2019-04-23T18:43:20.177Z,8.60
2019-04-23T18:45:44.878Z,10.20
2019-04-23T18:51:03.291Z,9.53
2019-04-23T18:58:54.477Z,8.83
2019-04-23T19:01:23.204Z,9.73
2019-04-23T19:04:09.885Z,8.80
2019-04-23T19:06:38.252Z,8.43
2019-04-23T19:09:47.770Z,10.10
2019-04-23T19:12:29.956Z,9.37
2019-04-23T19:19:55.555Z,9.30
2019-04-23T19:25:01.716Z,9.13
2019-04-23T19:27:45.903Z,9.87
2019-04-23T19:30:17.629Z,12.20
2019-04-23T19:32:49.302Z,10.20
2019-04-23T19:35:33.551Z,10.80
2019-04-23T19:40:14.123Z,10.10
2019-04-23T19:42:52.375Z,10.63
2019-04-23T19:45:24.818Z,10.70
2019-04-23T19:47:56.808Z,10.90
2019-04-23T19:50:29.798Z,10.70
2019-04-23T19:53:03.960Z,10.50
2019-04-23T19:55:17.463Z,9.80
2019-04-23T19:57:58.033Z,10.60
2019-04-23T20:00:17.908Z,10.30
2019-04-23T20:03:12.950Z,11.27
2019-04-23T20:05:21.703Z,11.70
2019-04-23T20:08:16.888Z,10.13
2019-04-23T20:10:30.048Z,10.33
2019-04-23T20:12:51.826Z,12.67
2019-04-23T20:15:44.380Z,11.27
2019-04-23T20:18:33.569Z,11.93
2019-04-23T20:20:55.002Z,12.23
2019-04-23T20:23:52.260Z,10.77
2019-04-23T20:32:30.554Z,10.53
2019-04-23T20:36:38.845Z,11.23
2019-04-23T20:39:07.262Z,12.07
2019-04-23T20:42:07.810Z,10.63
2019-04-23T20:49:40.139Z,10.60
2019-04-23T20:52:07.362Z,10.87
2019-04-23T20:54:42.124Z,10.87
2019-04-23T20:57:33.771Z,12.00
2019-04-23T21:05:15.053Z,11.40
2019-04-23T21:07:52.235Z,11.40
2019-04-23T21:12:50.149Z,10.33
2019-04-23T21:15:12.048Z,10.50
2019-04-23T21:17:55.800Z,11.57
2019-04-23T21:22:52.297Z,11.80
2019-04-23T21:25:09.443Z,12.00
2019-04-23T21:27:55.482Z,12.03
2019-04-23T21:30:41.406Z,11.07
2019-04-23T21:33:07.371Z,12.00
2019-04-23T21:36:05.005Z,12.67
2019-04-23T21:38:38.078Z,12.87
2019-04-23T21:41:39.416Z,11.50
2019-04-23T21:44:05.612Z,11.90
2019-04-23T21:46:24.053Z,11.33
2019-04-23T21:51:31.883Z,10.53
2019-04-23T21:56:26.132Z,11.90
2019-04-23T22:01:32.249Z,12.20
2019-04-23T22:04:17.669Z,12.03
2019-04-23T22:09:12.460Z,12.83
2019-04-23T22:11:48.265Z,11.80
2019-04-23T22:16:37.145Z,13.30
2019-04-23T22:24:54.575Z,11.90
2019-04-23T22:26:35.252Z,12.90
2019-04-23T22:29:14.061Z,13.43
2019-04-23T22:34:22.048Z,12.80
2019-04-23T22:36:39.297Z,12.50
2019-04-23T22:39:10.097Z,13.37
2019-04-23T22:41:55.924Z,12.90
2019-04-23T22:44:12.831Z,13.50
2019-04-23T22:46:53.525Z,14.13
2019-04-23T22:54:13.969Z,15.00
2019-04-23T23:02:29.076Z,13.53
2019-04-23T23:05:07.314Z,13.40
2019-04-23T23:07:28.578Z,14.20
2019-04-23T23:10:00.974Z,14.93
2019-04-23T23:12:34.139Z,13.47
2019-04-23T23:15:02.817Z,14.23
2019-04-23T23:17:31.030Z,14.73
2019-04-23T23:20:08.752Z,13.63
2019-04-23T23:22:29.096Z,14.07
2019-04-23T23:25:13.405Z,16.47
2019-04-23T23:27:41.376Z,13.63
2019-04-23T23:32:47.667Z,15.60
2019-04-23T23:35:14.607Z,15.30
2019-04-23T23:37:34.338Z,14.20
2019-04-23T23:42:42.754Z,15.37
2019-04-23T23:45:21.629Z,14.90
2019-04-23T23:47:46.686Z,13.70
2019-04-23T23:50:19.497Z,14.70
2019-04-23T23:53:02.711Z,14.70
2019-04-23T23:55:16.500Z,14.17
2019-04-23T23:57:50.293Z,15.97
